Terminal Aerodrome Forecast
Issued by NWS Wakefield, VA

Home | Current Version | Previous Version | Text Only | Print | Product List | Glossary On
Versions: 1 2 3 4 5 6 7 8 9 10 11 12 13 14 15 16 17 18 19 20 21 22 23 24 25 26 27
882
FTUS41 KAKQ 051120
TAFECG
TAF
KECG 051120Z 0512/0612 03011KT 5SM BR OVC003
     FM051400 04009KT P6SM OVC008
     FM051800 06011KT P6SM -SHRA OVC010
     FM060000 04009KT 4SM -SHRA BR OVC007=

USA.gov is the U.S. government's official web portal to all federal, state and local government web resources and services.